Time;durP1;ratioP1;P1;durP2;ratioP2;P2;SDS_P1;SDS_P2;PMS_P1;PMS_P2;Temp;Humidity;BMP_temperature;BMP_pressure;BME280_temperature;BME280_humidity;BME280_pressure;Samples;Min_cycle;Max_cycle;Signal;HPM_P1;HPM_P2
2024/01/20 00:00:15;;;;;;;0.50;0.50;;;;;;;;;;5070203;28;20119;-87
2024/01/20 00:02:42;;;;;;;0.57;0.57;;;;;;;;;;5091679;28;20040;-87
2024/01/20 00:05:08;;;;;;;0.50;0.50;;;;;;;;;;5072588;28;20086;-87
2024/01/20 00:07:34;;;;;;;0.75;0.75;;;;;;;;;;5075170;28;20044;-87
2024/01/20 00:10:00;;;;;;;0.82;0.82;;;;;;;;;;5074686;28;20047;-86
2024/01/20 00:12:26;;;;;;;0.40;0.40;;;;;;;;;;5064569;28;20096;-87
2024/01/20 00:14:52;;;;;;;0.50;0.50;;;;;;;;;;5074991;28;20047;-87
2024/01/20 00:17:42;;;;;;;0.50;0.50;;;;;;;;;;5072301;28;20063;-87
2024/01/20 00:20:08;;;;;;;0.50;0.50;;;;;;;;;;5059461;28;20056;-87
2024/01/20 00:22:44;;;;;;;0.50;0.50;;;;;;;;;;5073433;28;20032;-87
2024/01/20 00:25:10;;;;;;;0.50;0.50;;;;;;;;;;5061005;28;20447;-87
2024/01/20 00:27:36;;;;;;;0.50;0.50;;;;;;;;;;5075468;28;20040;-87
2024/01/20 00:30:04;;;;;;;0.50;0.50;;;;;;;;;;5068555;28;20040;-87
2024/01/20 00:32:30;;;;;;;0.47;0.47;;;;;;;;;;5071001;28;20032;-87
2024/01/20 00:34:56;;;;;;;0.50;0.50;;;;;;;;;;5069791;28;20404;-87
2024/01/20 00:37:22;;;;;;;0.50;0.50;;;;;;;;;;5074663;28;20377;-87
2024/01/20 00:39:48;;;;;;;0.50;0.50;;;;;;;;;;5080631;28;20048;-87
2024/01/20 00:42:14;;;;;;;0.50;0.50;;;;;;;;;;5071148;28;20050;-87
2024/01/20 00:44:41;;;;;;;0.60;0.60;;;;;;;;;;5066060;28;20481;-87
2024/01/20 00:47:07;;;;;;;0.50;0.50;;;;;;;;;;5054959;28;20056;-87
2024/01/20 00:49:33;;;;;;;0.50;0.50;;;;;;;;;;5077249;28;20062;-87
2024/01/20 00:51:59;;;;;;;0.50;0.50;;;;;;;;;;5067525;28;20047;-87
2024/01/20 00:54:25;;;;;;;0.50;0.50;;;;;;;;;;5060409;28;20512;-87
2024/01/20 00:56:51;;;;;;;1.95;1.15;;;;;;;;;;5054657;28;20084;-87
2024/01/20 01:02:25;;;;;;;0.47;0.47;;;;;;;;;;5073325;28;20451;-87
2024/01/20 01:04:51;;;;;;;0.50;0.50;;;;;;;;;;5058753;28;20037;-87
2024/01/20 01:07:17;;;;;;;0.50;0.50;;;;;;;;;;5058535;28;20113;-87
2024/01/20 01:09:43;;;;;;;0.50;0.50;;;;;;;;;;5058485;28;20047;-87
2024/01/20 01:12:09;;;;;;;0.50;0.50;;;;;;;;;;5057899;28;20090;-87
2024/01/20 01:14:35;;;;;;;0.50;0.50;;;;;;;;;;5058472;28;20032;-87
2024/01/20 01:17:01;;;;;;;0.50;0.50;;;;;;;;;;5057998;28;20105;-87
2024/01/20 01:19:27;;;;;;;0.50;0.50;;;;;;;;;;5058262;28;20033;-87
2024/01/20 01:21:53;;;;;;;0.50;0.50;;;;;;;;;;5057980;28;20037;-87
2024/01/20 01:24:19;;;;;;;0.50;0.50;;;;;;;;;;5074608;28;20036;-87
2024/01/20 01:27:07;;;;;;;0.50;0.50;;;;;;;;;;5058259;28;20041;-87
2024/01/20 01:29:33;;;;;;;0.50;0.50;;;;;;;;;;5058096;28;20040;-87
2024/01/20 01:31:59;;;;;;;0.52;0.52;;;;;;;;;;5057868;28;20083;-86
2024/01/20 01:34:25;;;;;;;0.50;0.50;;;;;;;;;;5063898;28;20044;-87
2024/01/20 01:36:51;;;;;;;0.50;0.50;;;;;;;;;;5094506;28;20047;-86
2024/01/20 01:39:17;;;;;;;0.60;0.60;;;;;;;;;;5094614;28;20036;-87
2024/01/20 01:41:43;;;;;;;0.40;0.40;;;;;;;;;;5078104;28;20464;-87
2024/01/20 01:44:10;;;;;;;0.80;0.80;;;;;;;;;;5077717;28;20071;-87
2024/01/20 01:46:36;;;;;;;0.50;0.50;;;;;;;;;;5078000;28;20051;-87
2024/01/20 01:49:02;;;;;;;0.50;0.50;;;;;;;;;;5077754;28;20044;-87
2024/01/20 01:51:28;;;;;;;0.50;0.50;;;;;;;;;;5084529;28;20496;-88
2024/01/20 01:53:54;;;;;;;0.50;0.50;;;;;;;;;;5060724;28;20040;-88
2024/01/20 01:56:21;;;;;;;0.50;0.50;;;;;;;;;;5077391;28;20047;-87
2024/01/20 01:58:47;;;;;;;0.55;0.55;;;;;;;;;;5077682;28;20036;-87
2024/01/20 02:01:13;;;;;;;0.50;0.50;;;;;;;;;;5077521;28;20036;-87
2024/01/20 02:03:39;;;;;;;0.50;0.50;;;;;;;;;;5068867;28;20101;-87
2024/01/20 02:06:09;;;;;;;0.60;0.60;;;;;;;;;;5062976;28;20075;-87
2024/01/20 02:08:35;;;;;;;0.50;0.50;;;;;;;;;;5070011;28;20036;-87
2024/01/20 02:11:02;;;;;;;0.50;0.50;;;;;;;;;;5057212;28;20044;-87
2024/01/20 02:13:28;;;;;;;0.50;0.50;;;;;;;;;;5057024;28;20049;-87
2024/01/20 02:15:54;;;;;;;0.50;0.50;;;;;;;;;;5056969;28;20134;-88
2024/01/20 02:18:23;;;;;;;0.68;0.68;;;;;;;;;;5073742;28;20123;-87
2024/01/20 02:20:50;;;;;;;0.50;0.50;;;;;;;;;;5057252;28;20090;-87
2024/01/20 02:23:16;;;;;;;0.40;0.40;;;;;;;;;;5056974;28;20485;-87
2024/01/20 02:25:42;;;;;;;0.75;0.75;;;;;;;;;;5057175;28;20098;-87
2024/01/20 02:28:08;;;;;;;0.50;0.50;;;;;;;;;;5057204;28;20148;-88
2024/01/20 02:30:34;;;;;;;0.60;0.60;;;;;;;;;;5057180;28;20087;-87
2024/01/20 02:33:00;;;;;;;0.63;0.63;;;;;;;;;;5056533;28;20044;-87
2024/01/20 02:35:26;;;;;;;0.50;0.50;;;;;;;;;;5056936;28;20515;-88
2024/01/20 02:37:52;;;;;;;0.50;0.50;;;;;;;;;;5056694;28;20043;-87
2024/01/20 02:40:17;;;;;;;0.60;0.60;;;;;;;;;;5056849;28;20029;-87
2024/01/20 02:42:43;;;;;;;0.70;0.70;;;;;;;;;;5056793;28;20552;-87
2024/01/20 02:45:09;;;;;;;0.50;0.50;;;;;;;;;;5056605;28;20037;-87
2024/01/20 02:47:35;;;;;;;0.60;0.60;;;;;;;;;;5056655;28;20648;-87
2024/01/20 02:50:01;;;;;;;0.55;0.55;;;;;;;;;;5056482;28;20044;-87
2024/01/20 02:52:27;;;;;;;0.60;0.60;;;;;;;;;;5056639;28;20071;-87
2024/01/20 02:54:53;;;;;;;0.50;0.50;;;;;;;;;;5073207;28;20055;-87
2024/01/20 02:57:19;;;;;;;0.50;0.50;;;;;;;;;;5056433;28;20041;-87
2024/01/20 02:59:45;;;;;;;0.50;0.50;;;;;;;;;;5075348;28;20054;-87
2024/01/20 03:02:11;;;;;;;0.40;0.40;;;;;;;;;;5075995;28;20036;-88
2024/01/20 03:04:37;;;;;;;0.55;0.55;;;;;;;;;;5076079;28;20032;-87
2024/01/20 03:07:04;;;;;;;0.50;0.50;;;;;;;;;;5060373;28;20496;-87
2024/01/20 03:09:30;;;;;;;0.50;0.50;;;;;;;;;;5056194;28;20055;-87
2024/01/20 03:11:56;;;;;;;0.43;0.43;;;;;;;;;;5093126;28;20048;-87
2024/01/20 03:14:22;;;;;;;0.50;0.50;;;;;;;;;;5064222;28;20048;-88
2024/01/20 03:16:48;;;;;;;0.50;0.50;;;;;;;;;;5072687;28;20119;-87
2024/01/20 03:19:13;;;;;;;0.50;0.50;;;;;;;;;;5056251;28;20101;-87
2024/01/20 03:21:40;;;;;;;0.60;0.60;;;;;;;;;;5072600;28;20115;-87
2024/01/20 03:24:06;;;;;;;0.57;0.57;;;;;;;;;;5056223;28;20078;-88
2024/01/20 03:26:32;;;;;;;0.50;0.50;;;;;;;;;;5072512;28;20040;-87
2024/01/20 03:28:58;;;;;;;0.50;0.50;;;;;;;;;;5074769;28;20128;-88
2024/01/20 03:31:25;;;;;;;0.50;0.50;;;;;;;;;;5075851;28;20040;-88
2024/01/20 03:33:51;;;;;;;0.45;0.45;;;;;;;;;;5075754;28;20076;-88
2024/01/20 03:36:17;;;;;;;0.50;0.50;;;;;;;;;;5076139;28;20079;-88
2024/01/20 03:38:43;;;;;;;0.50;0.50;;;;;;;;;;5075910;28;20036;-87
2024/01/20 03:41:09;;;;;;;0.50;0.50;;;;;;;;;;5075738;28;20040;-88
2024/01/20 03:43:35;;;;;;;0.50;0.50;;;;;;;;;;5075599;28;20039;-88
2024/01/20 03:46:01;;;;;;;0.50;0.50;;;;;;;;;;5075913;28;20036;-88
2024/01/20 03:48:27;;;;;;;0.50;0.50;;;;;;;;;;5075425;28;20046;-88
2024/01/20 03:50:53;;;;;;;0.50;0.50;;;;;;;;;;5075458;28;20408;-87
2024/01/20 03:53:19;;;;;;;0.50;0.50;;;;;;;;;;5075310;28;20036;-88
2024/01/20 03:55:45;;;;;;;0.50;0.50;;;;;;;;;;5075165;28;20036;-87
2024/01/20 03:58:11;;;;;;;0.50;0.50;;;;;;;;;;5059356;28;20039;-88
2024/01/20 04:03:41;;;;;;;0.60;0.60;;;;;;;;;;5092117;28;20415;-88
2024/01/20 04:06:07;;;;;;;0.50;0.50;;;;;;;;;;5075622;28;20128;-87
2024/01/20 04:08:33;;;;;;;0.50;0.50;;;;;;;;;;5075426;28;20032;-87
2024/01/20 04:10:59;;;;;;;2.13;1.35;;;;;;;;;;5075187;28;20032;-87
2024/01/20 04:13:26;;;;;;;0.60;0.60;;;;;;;;;;5075493;28;20484;-87
2024/01/20 04:15:53;;;;;;;0.50;0.50;;;;;;;;;;5075052;28;20122;-87
2024/01/20 04:18:19;;;;;;;0.50;0.50;;;;;;;;;;5061541;28;20049;-87
2024/01/20 04:20:45;;;;;;;0.60;0.60;;;;;;;;;;5063042;28;20488;-88
2024/01/20 04:23:11;;;;;;;0.50;0.50;;;;;;;;;;5091810;28;20083;-87
2024/01/20 04:25:37;;;;;;;0.50;0.50;;;;;;;;;;5092004;28;20032;-88
2024/01/20 04:28:03;;;;;;;0.40;0.40;;;;;;;;;;5075311;28;20040;-87
2024/01/20 04:30:29;;;;;;;0.50;0.50;;;;;;;;;;5091911;28;20039;-88
2024/01/20 04:32:55;;;;;;;1.10;0.85;;;;;;;;;;5075255;28;20392;-87
2024/01/20 04:35:21;;;;;;;0.50;0.50;;;;;;;;;;5075132;28;20032;-87
2024/01/20 04:37:47;;;;;;;0.50;0.50;;;;;;;;;;5076498;28;20032;-87
2024/01/20 04:40:13;;;;;;;0.50;0.50;;;;;;;;;;5076728;28;20068;-88
2024/01/20 04:42:39;;;;;;;0.47;0.47;;;;;;;;;;5065356;28;20040;-88
2024/01/20 04:45:06;;;;;;;0.52;0.52;;;;;;;;;;5096211;28;20069;-88
2024/01/20 04:47:33;;;;;;;0.50;0.50;;;;;;;;;;5078966;28;20040;-88
2024/01/20 04:49:59;;;;;;;0.40;0.40;;;;;;;;;;5079135;28;20526;-88
2024/01/20 04:52:25;;;;;;;0.50;0.50;;;;;;;;;;5078737;28;20035;-88
2024/01/20 04:54:52;;;;;;;0.50;0.50;;;;;;;;;;5078935;28;20040;-88
2024/01/20 04:57:18;;;;;;;0.50;0.50;;;;;;;;;;5078865;28;20044;-88
2024/01/20 04:59:45;;;;;;;0.50;0.50;;;;;;;;;;5078851;28;20036;-88
2024/01/20 05:02:11;;;;;;;0.50;0.50;;;;;;;;;;5078235;28;20032;-88
2024/01/20 05:04:37;;;;;;;0.43;0.43;;;;;;;;;;5078740;28;20036;-88
2024/01/20 05:07:02;;;;;;;0.50;0.50;;;;;;;;;;5062380;28;20162;-88
2024/01/20 05:09:28;;;;;;;0.50;0.50;;;;;;;;;;5058977;28;20397;-88
2024/01/20 05:11:54;;;;;;;0.50;0.50;;;;;;;;;;5058721;28;20052;-87
2024/01/20 05:14:20;;;;;;;0.60;0.60;;;;;;;;;;5058469;28;20040;-88
2024/01/20 05:16:46;;;;;;;0.50;0.50;;;;;;;;;;5058389;28;20094;-88
2024/01/20 05:19:12;;;;;;;0.50;0.50;;;;;;;;;;5085153;28;20097;-88
2024/01/20 05:21:38;;;;;;;0.60;0.60;;;;;;;;;;5078568;28;20044;-87
2024/01/20 05:24:05;;;;;;;0.50;0.50;;;;;;;;;;5078262;28;20032;-88
2024/01/20 05:26:31;;;;;;;0.50;0.50;;;;;;;;;;5078446;28;20408;-88
2024/01/20 05:28:57;;;;;;;0.50;0.50;;;;;;;;;;5078413;28;20036;-88
2024/01/20 05:31:24;;;;;;;0.60;0.60;;;;;;;;;;5078443;28;20118;-88
2024/01/20 05:33:50;;;;;;;0.50;0.50;;;;;;;;;;5078173;28;20162;-88
2024/01/20 05:36:16;;;;;;;0.50;0.50;;;;;;;;;;5078041;28;20051;-88
2024/01/20 05:38:42;;;;;;;0.50;0.50;;;;;;;;;;5068285;28;20107;-87
2024/01/20 05:41:08;;;;;;;1.23;1.17;;;;;;;;;;5078282;28;20036;-88
2024/01/20 05:43:34;;;;;;;0.50;0.50;;;;;;;;;;5078200;28;20046;-88
2024/01/20 05:46:05;;;;;;;0.50;0.50;;;;;;;;;;5078127;28;20549;-88
2024/01/20 05:48:31;;;;;;;0.60;0.60;;;;;;;;;;5077958;28;20048;-87
2024/01/20 05:50:57;;;;;;;0.50;0.50;;;;;;;;;;5077992;28;20040;-88
2024/01/20 05:53:23;;;;;;;0.50;0.50;;;;;;;;;;5077464;28;20131;-88
2024/01/20 05:55:49;;;;;;;0.50;0.50;;;;;;;;;;5077879;28;20066;-88
2024/01/20 05:58:15;;;;;;;0.60;0.60;;;;;;;;;;5076529;28;20126;-87
2024/01/20 06:00:41;;;;;;;0.50;0.50;;;;;;;;;;5057551;28;20123;-87
2024/01/20 06:03:07;;;;;;;0.50;0.50;;;;;;;;;;5057443;28;20086;-87
2024/01/20 06:05:33;;;;;;;0.50;0.50;;;;;;;;;;5057647;28;20400;-87
2024/01/20 06:07:59;;;;;;;0.52;0.52;;;;;;;;;;5057686;28;20040;-87
2024/01/20 06:10:25;;;;;;;0.50;0.50;;;;;;;;;;5057518;28;20047;-87
2024/01/20 06:12:51;;;;;;;0.50;0.50;;;;;;;;;;5057251;28;20037;-87
2024/01/20 06:15:17;;;;;;;0.50;0.50;;;;;;;;;;5057057;28;20040;-88
2024/01/20 06:17:43;;;;;;;1.50;0.82;;;;;;;;;;5057228;28;20037;-88
2024/01/20 06:20:09;;;;;;;0.68;0.68;;;;;;;;;;5057167;28;20539;-88
2024/01/20 06:22:35;;;;;;;0.50;0.50;;;;;;;;;;5057182;28;20395;-87
2024/01/20 06:25:01;;;;;;;0.50;0.50;;;;;;;;;;5057026;28;20040;-88
2024/01/20 06:27:30;;;;;;;0.50;0.50;;;;;;;;;;5056798;28;20485;-88
2024/01/20 06:29:56;;;;;;;0.50;0.50;;;;;;;;;;5057240;28;20040;-88
2024/01/20 06:32:22;;;;;;;0.60;0.60;;;;;;;;;;5056879;28;20047;-87
2024/01/20 06:34:47;;;;;;;0.52;0.52;;;;;;;;;;5073730;28;20123;-87
2024/01/20 06:37:13;;;;;;;0.50;0.50;;;;;;;;;;5079545;28;20408;-88
2024/01/20 06:39:41;;;;;;;0.50;0.50;;;;;;;;;;5077080;28;20040;-88
2024/01/20 06:42:07;;;;;;;0.60;0.60;;;;;;;;;;5077125;28;20039;-88
2024/01/20 06:44:33;;;;;;;0.50;0.50;;;;;;;;;;5094082;28;20036;-89
2024/01/20 06:47:18;;;;;;;0.60;0.60;;;;;;;;;;5093389;28;20142;-88
2024/01/20 06:49:49;;;;;;;0.60;0.60;;;;;;;;;;5073629;28;20101;-88
2024/01/20 06:52:15;;;;;;;0.50;0.50;;;;;;;;;;5076698;28;20050;-88
2024/01/20 06:54:41;;;;;;;0.50;0.50;;;;;;;;;;5076860;28;20089;-88
2024/01/20 06:57:07;;;;;;;0.50;0.50;;;;;;;;;;5076535;28;20044;-88
2024/01/20 06:59:33;;;;;;;0.50;0.50;;;;;;;;;;5076051;28;20438;-88
2024/01/20 07:02:00;;;;;;;0.50;0.50;;;;;;;;;;5072216;28;20040;-87
2024/01/20 07:04:26;;;;;;;0.50;0.50;;;;;;;;;;5067141;28;20042;-88
2024/01/20 07:06:51;;;;;;;0.50;0.50;;;;;;;;;;5057596;28;20119;-88
2024/01/20 07:09:17;;;;;;;0.50;0.50;;;;;;;;;;5071387;28;20492;-88
2024/01/20 07:11:43;;;;;;;0.50;0.50;;;;;;;;;;5056182;28;20040;-88
2024/01/20 07:14:09;;;;;;;0.50;0.50;;;;;;;;;;5064029;28;20040;-88
2024/01/20 07:16:36;;;;;;;0.50;0.50;;;;;;;;;;5075976;28;20039;-88
2024/01/20 07:19:02;;;;;;;0.50;0.50;;;;;;;;;;5069878;28;20151;-88
2024/01/20 07:21:28;;;;;;;0.60;0.60;;;;;;;;;;5070512;28;20121;-88
2024/01/20 07:23:54;;;;;;;0.50;0.50;;;;;;;;;;5074223;28;20582;-88
2024/01/20 07:26:20;;;;;;;1.75;1.42;;;;;;;;;;5073254;28;20039;-88
2024/01/20 07:28:46;;;;;;;0.50;0.50;;;;;;;;;;5059601;28;20044;-88
2024/01/20 07:31:12;;;;;;;0.50;0.50;;;;;;;;;;5079545;28;20058;-88
2024/01/20 07:33:40;;;;;;;0.50;0.50;;;;;;;;;;5055833;28;20121;-88
2024/01/20 07:36:06;;;;;;;0.50;0.50;;;;;;;;;;5055590;28;20393;-87
2024/01/20 07:38:32;;;;;;;0.50;0.50;;;;;;;;;;5056273;28;20079;-87
2024/01/20 07:40:59;;;;;;;0.50;0.50;;;;;;;;;;5072392;28;20114;-88
2024/01/20 07:43:25;;;;;;;0.50;0.50;;;;;;;;;;5076559;28;20045;-88
2024/01/20 07:45:55;;;;;;;0.50;0.50;;;;;;;;;;5055629;28;20040;-88
2024/01/20 07:48:21;;;;;;;0.50;0.50;;;;;;;;;;5057076;28;20074;-88
2024/01/20 07:50:48;;;;;;;0.40;0.40;;;;;;;;;;5076129;28;20079;-88
2024/01/20 07:53:17;;;;;;;0.50;0.50;;;;;;;;;;5092888;28;20044;-88
2024/01/20 07:55:43;;;;;;;0.50;0.50;;;;;;;;;;5088435;28;20051;-88
2024/01/20 07:58:09;;;;;;;0.63;0.63;;;;;;;;;;5075580;28;20031;-88
2024/01/20 08:01:00;;;;;;;0.50;0.50;;;;;;;;;;5075635;28;20400;-88
2024/01/20 08:03:26;;;;;;;0.50;0.50;;;;;;;;;;5075266;28;20032;-88
2024/01/20 08:05:52;;;;;;;0.50;0.50;;;;;;;;;;5075670;28;20127;-88
2024/01/20 08:08:18;;;;;;;0.60;0.60;;;;;;;;;;5072401;28;20044;-88
2024/01/20 08:10:44;;;;;;;0.50;0.50;;;;;;;;;;5055641;28;20481;-88
2024/01/20 08:13:10;;;;;;;0.50;0.50;;;;;;;;;;5055127;28;20127;-88
2024/01/20 08:15:36;;;;;;;0.50;0.50;;;;;;;;;;5055090;28;20469;-88
2024/01/20 08:18:02;;;;;;;0.50;0.50;;;;;;;;;;5065910;28;20082;-87
2024/01/20 08:20:28;;;;;;;0.50;0.50;;;;;;;;;;5072280;28;20111;-87
2024/01/20 08:22:54;;;;;;;0.50;0.50;;;;;;;;;;5071841;28;20033;-88
2024/01/20 08:25:20;;;;;;;0.50;0.50;;;;;;;;;;5055262;28;20064;-88
2024/01/20 08:27:46;;;;;;;0.50;0.50;;;;;;;;;;5072857;28;20050;-87
2024/01/20 08:30:12;;;;;;;0.40;0.40;;;;;;;;;;5075164;28;20497;-87
2024/01/20 08:32:40;;;;;;;2.65;2.45;;;;;;;;;;5064246;28;20051;-87
2024/01/20 08:35:06;;;;;;;0.40;0.40;;;;;;;;;;5068047;28;20046;-87
2024/01/20 08:37:32;;;;;;;0.50;0.50;;;;;;;;;;5077295;28;20413;-88
2024/01/20 08:39:58;;;;;;;0.50;0.50;;;;;;;;;;5069519;28;20036;-87
2024/01/20 08:42:24;;;;;;;0.50;0.50;;;;;;;;;;5084902;28;20123;-88
2024/01/20 08:45:06;;;;;;;0.50;0.50;;;;;;;;;;5057174;28;20037;-87
2024/01/20 08:47:32;;;;;;;0.50;0.50;;;;;;;;;;5074864;28;20048;-88
2024/01/20 08:49:58;;;;;;;0.60;0.60;;;;;;;;;;5064069;28;20036;-88
2024/01/20 08:52:24;;;;;;;0.50;0.50;;;;;;;;;;5071684;28;20048;-87
2024/01/20 08:54:50;;;;;;;0.50;0.50;;;;;;;;;;5054916;28;20044;-88
2024/01/20 08:57:29;;;;;;;0.50;0.50;;;;;;;;;;5071487;28;20539;-86
2024/01/20 08:59:55;;;;;;;0.80;0.80;;;;;;;;;;5064463;28;20036;-88
2024/01/20 09:02:21;;;;;;;0.50;0.50;;;;;;;;;;5067745;28;21433;-87
2024/01/20 09:04:47;;;;;;;1.70;1.60;;;;;;;;;;5077390;28;20048;-88
2024/01/20 09:07:13;;;;;;;0.50;0.50;;;;;;;;;;5074132;28;20065;-87
2024/01/20 09:09:39;;;;;;;0.50;0.50;;;;;;;;;;5065651;28;20408;-87
2024/01/20 09:12:05;;;;;;;0.60;0.60;;;;;;;;;;5059383;28;20041;-87
2024/01/20 09:14:31;;;;;;;0.50;0.50;;;;;;;;;;5054001;28;20041;-87
2024/01/20 09:16:57;;;;;;;0.50;0.50;;;;;;;;;;5072382;28;20050;-87
2024/01/20 09:19:23;;;;;;;0.60;0.60;;;;;;;;;;5063118;28;20040;-87
2024/01/20 09:21:49;;;;;;;0.50;0.50;;;;;;;;;;5059852;28;20443;-87
2024/01/20 09:24:15;;;;;;;0.50;0.50;;;;;;;;;;5091709;28;20040;-87
2024/01/20 09:26:41;;;;;;;0.50;0.50;;;;;;;;;;5068174;28;20040;-87
2024/01/20 09:29:07;;;;;;;0.50;0.50;;;;;;;;;;5073221;28;20050;-87
2024/01/20 09:31:33;;;;;;;0.50;0.50;;;;;;;;;;5066996;28;20048;-87
2024/01/20 09:33:59;;;;;;;0.50;0.50;;;;;;;;;;5075953;28;20040;-87
2024/01/20 09:36:25;;;;;;;0.50;0.50;;;;;;;;;;5076423;28;20075;-88
2024/01/20 09:38:54;;;;;;;0.47;0.47;;;;;;;;;;5073342;28;20036;-88
2024/01/20 09:41:22;;;;;;;0.50;0.50;;;;;;;;;;5067897;28;20043;-88
2024/01/20 09:43:48;;;;;;;0.47;0.47;;;;;;;;;;5076709;28;20045;-88
2024/01/20 09:46:14;;;;;;;0.50;0.50;;;;;;;;;;5073025;28;20047;-88
2024/01/20 09:48:42;;;;;;;0.75;0.75;;;;;;;;;;5075411;28;20080;-87
2024/01/20 09:51:08;;;;;;;0.43;0.43;;;;;;;;;;5071595;28;20043;-88
2024/01/20 09:53:43;;;;;;;0.50;0.50;;;;;;;;;;5091828;28;20044;-88
2024/01/20 09:56:09;;;;;;;0.50;0.50;;;;;;;;;;5076390;28;20089;-88
2024/01/20 09:58:35;;;;;;;0.50;0.50;;;;;;;;;;5063831;28;20705;-88
2024/01/20 10:01:02;;;;;;;0.50;0.50;;;;;;;;;;5086867;28;20508;-89
2024/01/20 10:03:29;;;;;;;0.50;0.50;;;;;;;;;;5073280;28;20945;-88
2024/01/20 10:05:57;;;;;;;0.40;0.40;;;;;;;;;;5062586;28;20039;-88
2024/01/20 10:08:26;;;;;;;0.50;0.50;;;;;;;;;;5065365;28;20048;-89
2024/01/20 10:11:02;;;;;;;0.93;0.88;;;;;;;;;;5074391;28;20060;-88
2024/01/20 10:13:43;;;;;;;0.50;0.50;;;;;;;;;;5070648;28;20412;-91
2024/01/20 10:16:09;;;;;;;0.50;0.50;;;;;;;;;;5072859;28;20065;-88
2024/01/20 10:18:38;;;;;;;0.50;0.50;;;;;;;;;;5071050;28;20127;-88
2024/01/20 10:21:05;;;;;;;0.50;0.50;;;;;;;;;;5076784;28;20112;-92
2024/01/20 10:23:35;;;;;;;0.50;0.50;;;;;;;;;;5093348;28;20040;-92
2024/01/20 10:26:04;;;;;;;1.05;0.93;;;;;;;;;;5064218;28;20051;-92
2024/01/20 10:28:31;;;;;;;0.50;0.50;;;;;;;;;;5073804;28;20040;-91
2024/01/20 10:30:57;;;;;;;0.95;0.95;;;;;;;;;;5065784;28;20041;-91
2024/01/20 10:33:23;;;;;;;0.50;0.50;;;;;;;;;;5067636;28;20456;-92
2024/01/20 10:35:52;;;;;;;0.50;0.50;;;;;;;;;;5068078;28;20045;-91
2024/01/20 10:38:21;;;;;;;0.50;0.50;;;;;;;;;;5089770;28;20079;-92
2024/01/20 10:40:52;;;;;;;0.50;0.50;;;;;;;;;;5070588;28;20042;-91
2024/01/20 10:43:18;;;;;;;0.50;0.50;;;;;;;;;;5067983;28;20075;-93
2024/01/20 10:46:04;;;;;;;0.40;0.40;;;;;;;;;;5058337;28;20377;-91
2024/01/20 10:48:36;;;;;;;0.55;0.55;;;;;;;;;;5063432;28;20045;-91
2024/01/20 10:51:06;;;;;;;0.50;0.50;;;;;;;;;;5071769;28;20044;-91
2024/01/20 10:53:32;;;;;;;0.40;0.40;;;;;;;;;;5058569;28;20070;-91
2024/01/20 10:55:59;;;;;;;0.50;0.50;;;;;;;;;;5075015;28;20044;-91
2024/01/20 10:58:31;;;;;;;0.50;0.50;;;;;;;;;;5049723;28;20055;-91
2024/01/20 11:00:57;;;;;;;0.50;0.50;;;;;;;;;;5058342;28;20047;-91
2024/01/20 11:03:23;;;;;;;0.60;0.60;;;;;;;;;;5058643;28;20041;-90
2024/01/20 11:05:53;;;;;;;0.50;0.50;;;;;;;;;;5071468;28;20377;-90
2024/01/20 11:08:46;;;;;;;0.60;0.60;;;;;;;;;;5066113;28;20063;-92
2024/01/20 11:11:12;;;;;;;0.50;0.50;;;;;;;;;;5073624;28;20064;-91
2024/01/20 11:13:38;;;;;;;0.50;0.50;;;;;;;;;;5064742;28;20043;-91
2024/01/20 11:16:04;;;;;;;0.40;0.40;;;;;;;;;;5074148;28;20089;-91
2024/01/20 11:18:30;;;;;;;0.50;0.50;;;;;;;;;;5065156;28;20036;-91
2024/01/20 11:21:01;;;;;;;0.60;0.60;;;;;;;;;;5066245;28;20033;-91
2024/01/20 11:23:27;;;;;;;0.50;0.50;;;;;;;;;;5056925;28;20047;-91
2024/01/20 11:25:53;;;;;;;0.50;0.50;;;;;;;;;;5076608;28;20040;-91
2024/01/20 11:28:47;;;;;;;0.50;0.50;;;;;;;;;;5076665;28;20094;-91
2024/01/20 11:31:20;;;;;;;0.43;0.43;;;;;;;;;;5069745;28;20053;-92
2024/01/20 11:33:46;;;;;;;0.60;0.60;;;;;;;;;;5067217;28;20040;-91
2024/01/20 11:36:12;;;;;;;1.38;0.82;;;;;;;;;;5063695;28;20045;-91
2024/01/20 11:38:38;;;;;;;0.50;0.50;;;;;;;;;;5076443;28;20062;-91
2024/01/20 11:41:09;;;;;;;0.50;0.50;;;;;;;;;;5094281;28;20082;-91
2024/01/20 11:43:35;;;;;;;0.47;0.47;;;;;;;;;;5060429;28;20037;-91
2024/01/20 11:46:03;;;;;;;0.50;0.50;;;;;;;;;;5073467;28;20492;-92
2024/01/20 11:48:30;;;;;;;0.80;0.80;;;;;;;;;;5067610;28;20044;-92
2024/01/20 11:50:57;;;;;;;0.50;0.50;;;;;;;;;;5072692;28;20445;-91
2024/01/20 11:53:23;;;;;;;0.50;0.50;;;;;;;;;;5075787;28;20089;-87
2024/01/20 11:55:53;;;;;;;0.47;0.47;;;;;;;;;;5056129;28;20047;-89
2024/01/20 11:58:19;;;;;;;0.50;0.50;;;;;;;;;;5055890;28;20485;-90
2024/01/20 12:00:45;;;;;;;0.50;0.50;;;;;;;;;;5056126;28;20047;-89
2024/01/20 12:03:11;;;;;;;0.50;0.50;;;;;;;;;;5055827;28;20036;-90
2024/01/20 12:05:37;;;;;;;0.50;0.50;;;;;;;;;;5056112;28;20405;-90
2024/01/20 12:08:04;;;;;;;0.65;0.65;;;;;;;;;;5069406;28;20044;-90
2024/01/20 12:10:33;;;;;;;0.50;0.50;;;;;;;;;;5076271;28;20043;-90
2024/01/20 12:13:02;;;;;;;0.50;0.50;;;;;;;;;;5058911;28;20033;-90
2024/01/20 12:15:42;;;;;;;0.50;0.50;;;;;;;;;;5055473;28;20052;-89
2024/01/20 12:18:08;;;;;;;0.50;0.50;;;;;;;;;;5078397;28;20101;-86
2024/01/20 12:20:34;;;;;;;0.50;0.50;;;;;;;;;;5074860;28;20044;-86
2024/01/20 12:23:00;;;;;;;0.50;0.50;;;;;;;;;;5074879;28;20370;-86
2024/01/20 12:25:37;;;;;;;0.40;0.40;;;;;;;;;;5074807;28;20044;-85
2024/01/20 12:28:03;;;;;;;0.57;0.57;;;;;;;;;;5091622;28;20044;-86
2024/01/20 12:30:29;;;;;;;0.50;0.50;;;;;;;;;;5075207;28;20070;-85
2024/01/20 12:32:56;;;;;;;0.50;0.50;;;;;;;;;;5074720;28;20400;-85
2024/01/20 12:35:23;;;;;;;0.50;0.50;;;;;;;;;;5059253;28;20045;-86
2024/01/20 12:37:49;;;;;;;0.50;0.50;;;;;;;;;;5054619;28;20448;-85
2024/01/20 12:40:15;;;;;;;0.50;0.50;;;;;;;;;;5078469;28;20032;-86
2024/01/20 12:42:42;;;;;;;0.50;0.50;;;;;;;;;;5074449;28;20040;-86
2024/01/20 12:45:08;;;;;;;0.50;0.50;;;;;;;;;;5070415;28;20036;-85
2024/01/20 12:47:34;;;;;;;0.50;0.50;;;;;;;;;;5077575;28;20511;-85
2024/01/20 12:50:00;;;;;;;0.40;0.40;;;;;;;;;;5054798;28;20040;-85
2024/01/20 12:52:26;;;;;;;0.75;0.65;;;;;;;;;;5075979;28;20043;-84
2024/01/20 12:54:57;;;;;;;0.50;0.50;;;;;;;;;;5054827;28;20512;-85
2024/01/20 12:57:23;;;;;;;0.60;0.60;;;;;;;;;;5059399;28;20055;-85
2024/01/20 12:59:49;;;;;;;0.50;0.50;;;;;;;;;;5077467;28;20036;-85
2024/01/20 13:02:15;;;;;;;0.50;0.50;;;;;;;;;;5095378;28;20032;-85
2024/01/20 13:04:42;;;;;;;0.50;0.50;;;;;;;;;;5067750;28;20123;-85
2024/01/20 13:07:08;;;;;;;0.45;0.45;;;;;;;;;;5058503;28;20131;-85
2024/01/20 13:09:35;;;;;;;0.40;0.40;;;;;;;;;;5068159;28;20044;-85
2024/01/20 13:12:13;;;;;;;0.50;0.50;;;;;;;;;;5067310;28;20093;-85
2024/01/20 13:14:41;;;;;;;0.50;0.50;;;;;;;;;;5075828;28;20078;-85
2024/01/20 13:17:07;;;;;;;0.50;0.50;;;;;;;;;;5058014;28;20489;-85
2024/01/20 13:19:33;;;;;;;0.50;0.50;;;;;;;;;;5059496;28;20093;-85
2024/01/20 13:21:59;;;;;;;0.57;0.57;;;;;;;;;;5085311;28;20093;-85
2024/01/20 13:24:25;;;;;;;0.50;0.50;;;;;;;;;;5057948;28;20041;-85
2024/01/20 13:26:51;;;;;;;0.50;0.50;;;;;;;;;;5074588;28;20377;-85
2024/01/20 13:29:17;;;;;;;0.50;0.50;;;;;;;;;;5074712;28;20174;-85
2024/01/20 13:31:43;;;;;;;0.50;0.50;;;;;;;;;;5057953;28;20047;-87
2024/01/20 13:34:10;;;;;;;0.50;0.50;;;;;;;;;;5057578;28;20044;-85
2024/01/20 13:36:36;;;;;;;0.50;0.50;;;;;;;;;;5059569;28;20038;-85
2024/01/20 13:42:30;;;;;;;0.50;0.50;;;;;;;;;;5075492;28;20538;-85
2024/01/20 13:44:56;;;;;;;0.50;0.50;;;;;;;;;;5074769;28;20063;-85
2024/01/20 13:47:22;;;;;;;0.50;0.50;;;;;;;;;;5077492;28;20047;-85
2024/01/20 13:49:48;;;;;;;0.50;0.50;;;;;;;;;;5073390;28;20507;-85
2024/01/20 13:52:14;;;;;;;0.50;0.50;;;;;;;;;;5057517;28;20044;-85
2024/01/20 13:54:42;;;;;;;0.60;0.60;;;;;;;;;;5074082;28;20044;-85
2024/01/20 13:57:15;;;;;;;0.60;0.55;;;;;;;;;;5057233;28;20044;-85
2024/01/20 13:59:41;;;;;;;0.50;0.50;;;;;;;;;;5057571;28;20066;-86
2024/01/20 14:02:07;;;;;;;0.50;0.50;;;;;;;;;;5057412;28;20036;-85
2024/01/20 14:04:33;;;;;;;0.50;0.50;;;;;;;;;;5075745;28;20043;-85
2024/01/20 14:07:00;;;;;;;0.40;0.40;;;;;;;;;;5064605;28;20036;-85
2024/01/20 14:09:26;;;;;;;0.50;0.50;;;;;;;;;;5076895;28;20131;-85
2024/01/20 14:11:52;;;;;;;0.75;0.75;;;;;;;;;;5072730;28;20131;-85
2024/01/20 14:14:18;;;;;;;0.50;0.50;;;;;;;;;;5057181;28;20080;-85
2024/01/20 14:16:57;;;;;;;0.50;0.50;;;;;;;;;;5056710;28;20105;-85
2024/01/20 14:19:24;;;;;;;0.50;0.50;;;;;;;;;;5086207;28;20040;-85
2024/01/20 14:21:50;;;;;;;0.50;0.50;;;;;;;;;;5057151;28;20050;-85
2024/01/20 14:24:16;;;;;;;0.50;0.50;;;;;;;;;;5056898;28;20070;-85
2024/01/20 14:26:42;;;;;;;0.50;0.50;;;;;;;;;;5056902;28;20048;-85
2024/01/20 14:29:09;;;;;;;0.50;0.50;;;;;;;;;;5056682;28;20036;-86
2024/01/20 14:31:44;;;;;;;2.47;1.23;;;;;;;;;;5077641;28;20044;-86
2024/01/20 14:34:10;;;;;;;0.50;0.50;;;;;;;;;;5080426;28;20036;-85
2024/01/20 14:36:36;;;;;;;0.50;0.50;;;;;;;;;;5093560;28;20484;-85
2024/01/20 14:39:02;;;;;;;0.60;0.60;;;;;;;;;;5076776;28;20040;-85
2024/01/20 14:41:30;;;;;;;0.55;0.55;;;;;;;;;;5079487;28;20045;-85
2024/01/20 14:43:56;;;;;;;3.90;1.50;;;;;;;;;;5073271;28;20044;-85
2024/01/20 14:46:22;;;;;;;0.52;0.52;;;;;;;;;;5056689;28;20097;-84
2024/01/20 14:48:48;;;;;;;0.50;0.50;;;;;;;;;;5056846;28;20072;-85
2024/01/20 14:51:14;;;;;;;0.50;0.50;;;;;;;;;;5058821;28;20047;-84